createdAt,value
2023-03-01T00:00:28.467Z,1049.00
2023-03-01T00:01:28.512Z,1063.00
2023-03-01T00:02:28.619Z,1061.00
2023-03-01T00:03:28.670Z,1042.00
2023-03-01T00:04:28.622Z,1059.00
2023-03-01T00:05:28.666Z,1057.00
2023-03-01T00:06:29.022Z,1057.00
2023-03-01T00:07:28.905Z,1053.00
2023-03-01T00:08:28.770Z,1044.00
2023-03-01T00:09:28.779Z,1045.00
2023-03-01T00:10:28.832Z,1048.00
2023-03-01T00:11:28.872Z,1041.00
2023-03-01T00:12:28.932Z,1045.00
2023-03-01T00:13:28.980Z,1048.00
2023-03-01T00:14:29.033Z,1038.00
2023-03-01T00:15:29.066Z,1040.00
2023-03-01T00:16:29.465Z,1029.00
2023-03-01T00:17:29.086Z,1034.00
2023-03-01T00:18:29.112Z,1026.00
2023-03-01T00:19:29.133Z,1041.00
2023-03-01T00:20:29.138Z,1024.00
2023-03-01T00:21:29.170Z,1016.00
2023-03-01T00:22:29.201Z,1030.00
2023-03-01T00:23:29.246Z,1037.00
2023-03-01T00:24:29.292Z,1027.00
2023-03-01T00:25:29.309Z,1024.00
2023-03-01T00:26:29.720Z,1030.00
2023-03-01T00:27:29.362Z,1033.00
2023-03-01T00:28:29.410Z,1023.00
2023-03-01T00:29:29.451Z,1027.00
2023-03-01T00:30:29.596Z,1021.00
2023-03-01T00:31:29.574Z,1024.00
2023-03-01T00:32:29.615Z,1008.00
2023-03-01T00:33:29.648Z,1019.00
2023-03-01T00:34:29.689Z,1022.00
2023-03-01T00:35:29.772Z,1019.00
2023-03-01T00:36:30.291Z,1008.00
2023-03-01T00:37:29.833Z,1008.00
2023-03-01T00:38:30.024Z,1012.00
2023-03-01T00:39:29.895Z,1008.00
2023-03-01T00:40:29.913Z,986.00
2023-03-01T00:41:29.946Z,993.00
2023-03-01T00:42:29.967Z,1007.00
2023-03-01T00:43:29.980Z,994.00
2023-03-01T00:44:30.007Z,992.00
2023-03-01T00:45:30.041Z,1007.00
2023-03-01T00:46:30.518Z,1004.00
2023-03-01T00:47:30.163Z,990.00
2023-03-01T00:48:30.211Z,999.00
2023-03-01T00:49:30.256Z,1000.00
2023-03-01T00:50:30.319Z,1000.00
2023-03-01T00:51:30.360Z,1007.00
2023-03-01T00:52:30.398Z,991.00
2023-03-01T00:53:30.452Z,995.00
2023-03-01T00:54:30.488Z,971.00
2023-03-01T00:55:30.515Z,985.00
2023-03-01T00:56:30.818Z,990.00
2023-03-01T00:57:30.539Z,990.00
2023-03-01T00:58:30.569Z,990.00
2023-03-01T00:59:30.578Z,990.00
2023-03-01T01:00:30.619Z,984.00
2023-03-01T01:01:30.784Z,992.00
2023-03-01T01:02:30.717Z,988.00
2023-03-01T01:03:30.677Z,986.00
2023-03-01T01:04:30.697Z,987.00
2023-03-01T01:05:30.722Z,984.00
2023-03-01T01:06:31.231Z,983.00
2023-03-01T01:07:30.930Z,974.00
2023-03-01T01:08:30.772Z,975.00
2023-03-01T01:09:30.816Z,969.00
2023-03-01T01:10:30.849Z,983.00
2023-03-01T01:11:30.893Z,979.00
2023-03-01T01:12:30.900Z,965.00
2023-03-01T01:13:30.915Z,978.00
2023-03-01T01:14:30.951Z,960.00
2023-03-01T01:15:31.022Z,974.00
2023-03-01T01:16:31.312Z,971.00
2023-03-01T01:17:31.085Z,974.00
2023-03-01T01:18:31.098Z,971.00
2023-03-01T01:19:31.121Z,969.00
2023-03-01T01:20:31.157Z,965.00
2023-03-01T01:21:31.184Z,951.00
2023-03-01T01:22:31.207Z,959.00
2023-03-01T01:23:31.235Z,962.00
2023-03-01T01:24:31.243Z,945.00
2023-03-01T01:25:31.268Z,955.00
2023-03-01T01:26:31.629Z,961.00
2023-03-01T01:27:31.354Z,955.00
2023-03-01T01:28:31.340Z,966.00
2023-03-01T01:29:31.335Z,956.00
2023-03-01T01:30:31.343Z,962.00
2023-03-01T01:31:31.466Z,954.00
2023-03-01T01:32:31.446Z,961.00
2023-03-01T01:33:31.445Z,950.00
2023-03-01T01:34:31.462Z,949.00
2023-03-01T01:35:31.505Z,952.00
2023-03-01T01:36:32.030Z,950.00
2023-03-01T01:37:31.501Z,956.00
2023-03-01T01:38:31.519Z,952.00
2023-03-01T01:39:32.514Z,952.00
2023-03-01T01:40:31.522Z,953.00
2023-03-01T01:41:31.522Z,954.00
2023-03-01T01:42:31.511Z,932.00
2023-03-01T01:43:31.521Z,937.00
2023-03-01T01:44:31.521Z,933.00
2023-03-01T01:45:31.525Z,947.00
2023-03-01T01:46:31.835Z,947.00
2023-03-01T01:47:31.535Z,930.00
2023-03-01T01:48:31.526Z,946.00
2023-03-01T01:49:31.533Z,937.00
2023-03-01T01:50:31.517Z,941.00
2023-03-01T01:51:31.532Z,927.00
2023-03-01T01:52:31.535Z,928.00
2023-03-01T01:53:31.534Z,926.00
2023-03-01T01:54:31.541Z,931.00
2023-03-01T01:55:31.544Z,935.00
2023-03-01T01:56:31.899Z,943.00
2023-03-01T01:57:31.545Z,926.00
2023-03-01T01:58:31.554Z,936.00
2023-03-01T01:59:31.555Z,930.00
2023-03-01T02:00:31.555Z,921.00
2023-03-01T02:01:31.566Z,934.00
2023-03-01T02:02:31.642Z,920.00
2023-03-01T02:03:31.652Z,920.00
2023-03-01T03:07:32.946Z,868.00
2023-03-01T03:08:33.037Z,881.00
2023-03-01T03:09:33.035Z,874.00
2023-03-01T03:10:33.045Z,879.00
2023-03-01T03:11:33.089Z,872.00
2023-03-01T03:12:33.124Z,865.00
2023-03-01T03:13:33.152Z,870.00
2023-03-01T03:14:33.195Z,864.00
2023-03-01T03:15:33.233Z,871.00
2023-03-01T03:16:33.793Z,874.00
2023-03-01T03:17:33.286Z,867.00
2023-03-01T03:18:33.346Z,868.00
2023-03-01T03:19:33.360Z,866.00
2023-03-01T03:20:33.394Z,873.00
2023-03-01T03:21:33.434Z,847.00
2023-03-01T03:22:33.472Z,858.00
2023-03-01T03:23:33.486Z,858.00
2023-03-01T03:24:33.520Z,868.00
2023-03-01T03:25:33.558Z,858.00
2023-03-01T03:26:33.751Z,865.00
2023-03-01T03:27:33.632Z,855.00
2023-03-01T03:28:33.673Z,853.00
2023-03-01T03:29:33.704Z,858.00
2023-03-01T03:30:33.739Z,861.00
2023-03-01T03:31:33.809Z,867.00
2023-03-01T03:32:33.811Z,855.00
2023-03-01T03:33:34.284Z,850.00
2023-03-01T03:34:33.856Z,849.00
2023-03-01T03:35:33.919Z,849.00
2023-03-01T03:36:33.912Z,852.00
2023-03-01T03:37:33.918Z,837.00
2023-03-01T03:38:33.959Z,853.00
2023-03-01T03:39:33.989Z,849.00
2023-03-01T03:40:34.005Z,849.00
2023-03-01T03:41:34.034Z,850.00
2023-03-01T03:42:34.044Z,844.00
2023-03-01T03:43:34.082Z,843.00
2023-03-01T03:44:34.069Z,853.00
2023-03-01T03:45:34.289Z,841.00
2023-03-01T03:46:34.560Z,833.00
2023-03-01T03:47:34.121Z,842.00
2023-03-01T03:48:34.144Z,852.00
2023-03-01T03:49:34.156Z,852.00
2023-03-01T03:50:34.173Z,842.00
2023-03-01T03:51:34.191Z,831.00
2023-03-01T03:52:34.203Z,846.00
2023-03-01T03:53:34.218Z,841.00
2023-03-01T03:54:34.223Z,843.00
2023-03-01T03:55:34.228Z,828.00
2023-03-01T03:56:34.517Z,843.00
2023-03-01T03:57:34.257Z,826.00
2023-03-01T03:58:34.263Z,850.00
2023-03-01T03:59:34.306Z,829.00
2023-03-01T04:00:34.330Z,835.00
2023-03-01T04:01:34.377Z,832.00
2023-03-01T04:02:34.415Z,838.00
2023-03-01T04:03:34.379Z,829.00
2023-03-01T04:04:34.393Z,824.00
2023-03-01T04:05:34.406Z,824.00
2023-03-01T04:06:34.425Z,835.00
2023-03-01T04:07:34.446Z,831.00
2023-03-01T04:08:34.457Z,827.00
2023-03-01T04:09:34.476Z,841.00
2023-03-01T04:10:34.515Z,829.00
2023-03-01T04:11:34.533Z,831.00
2023-03-01T04:12:34.543Z,825.00
2023-03-01T04:13:34.561Z,839.00
2023-03-01T04:14:34.583Z,826.00
2023-03-01T04:15:34.659Z,828.00
2023-03-01T04:16:34.827Z,815.00
2023-03-01T04:17:34.633Z,822.00
2023-03-01T04:18:34.650Z,816.00
2023-03-01T04:19:34.648Z,826.00
2023-03-01T04:20:34.677Z,826.00
2023-03-01T04:21:34.678Z,817.00
2023-03-01T04:22:34.700Z,822.00
2023-03-01T04:23:34.716Z,822.00
2023-03-01T04:24:34.711Z,820.00
2023-03-01T04:25:34.718Z,828.00
2023-03-01T04:26:34.723Z,814.00
2023-03-01T04:27:34.740Z,804.00
2023-03-01T04:28:34.771Z,817.00
2023-03-01T04:29:34.758Z,812.00
2023-03-01T04:30:34.765Z,820.00
2023-03-01T04:31:34.796Z,805.00
2023-03-01T04:32:34.887Z,822.00
2023-03-01T04:33:34.799Z,804.00
2023-03-01T04:34:34.827Z,812.00
2023-03-01T04:35:34.927Z,812.00
2023-03-01T04:36:35.346Z,807.00
2023-03-01T04:37:34.885Z,804.00
2023-03-01T04:38:34.911Z,799.00
2023-03-01T04:39:34.910Z,800.00
2023-03-01T04:40:34.940Z,811.00
2023-03-01T04:41:34.965Z,796.00
2023-03-01T04:42:34.983Z,804.00
2023-03-01T04:43:35.025Z,795.00
2023-03-01T04:44:35.009Z,802.00
2023-03-01T04:45:35.023Z,793.00
2023-03-01T04:46:35.007Z,798.00
2023-03-01T04:47:35.048Z,802.00
2023-03-01T04:48:35.058Z,803.00
2023-03-01T04:49:35.074Z,794.00
2023-03-01T04:50:35.096Z,790.00
2023-03-01T04:51:35.107Z,784.00
2023-03-01T04:52:35.113Z,781.00
2023-03-01T04:53:35.134Z,786.00
2023-03-01T04:54:35.155Z,785.00
2023-03-01T04:55:35.172Z,789.00
2023-03-01T04:56:35.178Z,772.00
2023-03-01T04:57:35.192Z,781.00
2023-03-01T04:58:35.190Z,789.00
2023-03-01T04:59:35.187Z,783.00
2023-03-01T05:00:35.204Z,782.00
2023-03-01T05:01:35.237Z,775.00
2023-03-01T05:02:35.312Z,780.00
2023-03-01T05:03:35.268Z,781.00
2023-03-01T05:04:35.390Z,778.00
2023-03-01T05:05:35.287Z,767.00
2023-03-01T05:06:35.335Z,786.00
2023-03-01T05:07:35.335Z,768.00
2023-03-01T05:08:35.341Z,779.00
2023-03-01T05:09:35.365Z,753.00
2023-03-01T05:10:35.395Z,760.00
2023-03-01T05:11:35.426Z,767.00
2023-03-01T05:12:35.466Z,772.00
2023-03-01T05:13:35.532Z,765.00
2023-03-01T05:14:35.533Z,773.00
2023-03-01T05:15:35.580Z,760.00
2023-03-01T05:16:36.551Z,767.00
2023-03-01T05:17:35.640Z,776.00
2023-03-01T05:18:35.690Z,774.00
2023-03-01T05:19:35.738Z,778.00
2023-03-01T05:20:35.758Z,772.00
2023-03-01T05:21:35.802Z,785.00
2023-03-01T05:22:35.827Z,768.00
2023-03-01T05:23:35.860Z,780.00
2023-03-01T05:24:35.890Z,765.00
2023-03-01T05:25:36.819Z,774.00
2023-03-01T05:26:35.936Z,769.00
2023-03-01T05:27:35.962Z,770.00
2023-03-01T05:28:35.985Z,783.00
2023-03-01T05:29:36.045Z,776.00
2023-03-01T05:30:36.034Z,766.00
2023-03-01T05:31:36.077Z,767.00
2023-03-01T05:32:36.104Z,773.00
2023-03-01T05:33:37.979Z,761.00
2023-03-01T05:34:36.306Z,779.00
2023-03-01T05:35:36.339Z,773.00
2023-03-01T05:36:36.340Z,768.00
2023-03-01T05:37:36.376Z,759.00
2023-03-01T05:38:36.398Z,769.00
2023-03-01T05:39:36.390Z,765.00
2023-03-01T05:40:36.433Z,771.00
2023-03-01T05:41:36.438Z,782.00
2023-03-01T05:42:36.467Z,776.00
2023-03-01T05:43:36.493Z,781.00
2023-03-01T05:44:36.522Z,771.00
2023-03-01T05:45:36.603Z,781.00
2023-03-01T05:46:36.597Z,769.00
2023-03-01T05:47:36.658Z,777.00
2023-03-01T05:48:36.688Z,755.00
2023-03-01T05:49:38.947Z,771.00
2023-03-01T06:21:36.967Z,909.00
2023-03-01T06:22:36.959Z,937.00
2023-03-01T06:23:36.962Z,941.00
2023-03-01T06:24:36.992Z,968.00
2023-03-01T06:25:37.003Z,972.00
2023-03-01T06:26:37.034Z,971.00
2023-03-01T06:27:37.024Z,975.00
2023-03-01T06:28:37.024Z,1005.00
2023-03-01T06:29:37.041Z,979.00
2023-03-01T06:30:37.869Z,1027.00
2023-03-01T06:31:37.937Z,1064.00
2023-03-01T06:32:37.079Z,1069.00
2023-03-01T06:33:37.096Z,1104.00
2023-03-01T06:34:37.079Z,1136.00
2023-03-01T06:35:37.115Z,1147.00
2023-03-01T06:36:37.100Z,1154.00
2023-03-01T06:37:37.099Z,1141.00
2023-03-01T06:38:37.108Z,1107.00
2023-03-01T06:39:37.097Z,1092.00
2023-03-01T06:40:37.111Z,1093.00
2023-03-01T06:41:37.113Z,1074.00
2023-03-01T06:42:37.120Z,1088.00
2023-03-01T06:43:37.114Z,1058.00
2023-03-01T06:44:37.104Z,1065.00
2023-03-01T06:45:37.111Z,1068.00
2023-03-01T06:46:37.169Z,1061.00
2023-03-01T06:47:37.140Z,1018.00
2023-03-01T06:48:37.119Z,1043.00
2023-03-01T06:49:37.118Z,1030.00
2023-03-01T06:50:37.185Z,1022.00
2023-03-01T06:51:37.118Z,1020.00
2023-03-01T06:52:37.126Z,991.00
2023-03-01T06:53:37.142Z,1003.00
2023-03-01T06:54:37.133Z,1030.00
2023-03-01T06:55:37.135Z,1005.00
2023-03-01T06:56:37.145Z,1034.00
2023-03-01T06:57:37.135Z,1012.00
2023-03-01T06:58:37.139Z,1027.00
2023-03-01T06:59:37.144Z,943.00
2023-03-01T07:00:37.147Z,947.00
2023-03-01T07:01:37.179Z,976.00
2023-03-01T07:02:37.186Z,988.00
2023-03-01T07:03:37.163Z,992.00
2023-03-01T07:04:37.178Z,1008.00
2023-03-01T07:05:37.186Z,1022.00
2023-03-01T07:06:37.174Z,1010.00
2023-03-01T07:07:37.179Z,1007.00
2023-03-01T07:08:37.184Z,985.00
2023-03-01T07:09:37.177Z,1002.00
2023-03-01T07:10:37.177Z,1000.00
2023-03-01T07:11:37.255Z,999.00
2023-03-01T07:12:37.244Z,983.00
2023-03-01T07:13:37.175Z,983.00
2023-03-01T07:14:38.876Z,1034.00
2023-03-01T07:15:37.194Z,1010.00
2023-03-01T07:16:37.222Z,1005.00
2023-03-01T07:17:37.204Z,986.00
2023-03-01T07:18:37.199Z,1013.00
2023-03-01T07:19:37.215Z,1016.00
2023-03-01T07:20:37.302Z,1044.00
2023-03-01T07:21:37.280Z,1052.00
2023-03-01T07:22:37.234Z,1027.00
2023-03-01T07:23:37.268Z,1034.00
2023-03-01T07:24:37.254Z,1042.00
2023-03-01T07:25:37.245Z,1056.00
2023-03-01T07:26:37.306Z,1098.00
2023-03-01T07:27:37.359Z,1102.00
2023-03-01T07:28:37.421Z,1100.00
2023-03-01T07:29:37.455Z,1138.00
2023-03-01T07:30:37.501Z,1126.00
2023-03-01T07:31:37.552Z,1148.00
2023-03-01T07:32:37.723Z,1140.00
2023-03-01T07:33:37.687Z,1131.00
2023-03-01T07:34:37.738Z,1147.00
2023-03-01T07:35:37.779Z,1147.00
2023-03-01T07:36:37.743Z,1146.00
2023-03-01T07:37:37.738Z,1138.00
2023-03-01T07:38:37.724Z,1153.00
2023-03-01T07:39:37.722Z,1149.00
2023-03-01T07:40:37.720Z,1144.00
2023-03-01T07:41:37.723Z,1146.00
2023-03-01T07:42:42.908Z,1131.00
2023-03-01T07:43:37.724Z,1132.00
2023-03-01T07:44:37.728Z,1133.00
2023-03-01T07:45:37.800Z,1134.00
2023-03-01T07:46:37.733Z,1154.00
2023-03-01T07:47:37.798Z,1171.00
2023-03-01T07:48:37.882Z,1160.00
2023-03-01T07:49:37.957Z,1168.00
2023-03-01T07:50:38.000Z,1129.00
2023-03-01T07:51:38.071Z,1139.00
2023-03-01T07:52:38.157Z,1136.00
2023-03-01T07:53:38.216Z,1166.00
2023-03-01T07:54:38.276Z,1137.00
2023-03-01T07:55:38.233Z,1011.00
2023-03-01T07:56:38.216Z,861.00
2023-03-01T07:57:38.224Z,924.00
2023-03-01T07:58:38.254Z,989.00
2023-03-01T07:59:38.229Z,1034.00
2023-03-01T08:00:38.228Z,1065.00
2023-03-01T08:01:38.255Z,1065.00
2023-03-01T08:02:38.232Z,1088.00
2023-03-01T08:03:38.885Z,1080.00
2023-03-01T08:04:38.387Z,1076.00
2023-03-01T08:05:38.238Z,1091.00
2023-03-01T08:06:38.291Z,1092.00
2023-03-01T08:07:38.291Z,1093.00
2023-03-01T08:08:38.340Z,1101.00
2023-03-01T08:09:38.398Z,1083.00
2023-03-01T08:10:38.432Z,1094.00
2023-03-01T08:11:38.477Z,1087.00
2023-03-01T08:12:38.477Z,1077.00
2023-03-01T08:13:38.573Z,1090.00
2023-03-01T08:14:38.543Z,1087.00
2023-03-01T08:15:39.312Z,1077.00
2023-03-01T08:16:38.671Z,1069.00
2023-03-01T08:17:38.610Z,1093.00
2023-03-01T08:18:38.665Z,1131.00
2023-03-01T08:19:38.732Z,1217.00
2023-03-01T08:20:38.675Z,1215.00
2023-03-01T08:21:38.773Z,1252.00
2023-03-01T08:22:38.730Z,1258.00
2023-03-01T08:23:38.748Z,1237.00
2023-03-01T08:24:38.825Z,1221.00
2023-03-01T08:25:38.822Z,1212.00
2023-03-01T08:26:38.899Z,1237.00
2023-03-01T08:27:38.901Z,1226.00
2023-03-01T08:28:38.937Z,1227.00
2023-03-01T08:29:38.971Z,1189.00
2023-03-01T08:30:39.019Z,1192.00
2023-03-01T08:31:39.087Z,1196.00
2023-03-01T08:32:39.162Z,1188.00
2023-03-01T08:33:39.190Z,1214.00
2023-03-01T08:34:40.462Z,1208.00
2023-03-01T08:35:39.316Z,1218.00
2023-03-01T08:36:39.355Z,1207.00
2023-03-01T08:37:39.432Z,1197.00
2023-03-01T08:38:39.498Z,1180.00
2023-03-01T08:39:39.590Z,1181.00
2023-03-01T08:40:39.663Z,1195.00
2023-03-01T08:41:39.689Z,1172.00
2023-03-01T08:42:39.751Z,1170.00
2023-03-01T08:43:39.820Z,1181.00
2023-03-01T08:44:39.868Z,1173.00
2023-03-01T08:45:39.939Z,1162.00
2023-03-01T08:46:39.985Z,1168.00
2023-03-01T08:47:40.060Z,1163.00
2023-03-01T08:48:40.096Z,1134.00
2023-03-01T08:49:40.141Z,1115.00
2023-03-01T08:50:42.286Z,1137.00
2023-03-01T08:51:40.252Z,1133.00
2023-03-01T08:52:40.311Z,1137.00
2023-03-01T08:53:40.378Z,1131.00
2023-03-01T08:54:40.426Z,1116.00
2023-03-01T08:55:40.479Z,1133.00
2023-03-01T08:56:40.494Z,1124.00
2023-03-01T08:57:40.536Z,1126.00
2023-03-01T08:58:40.587Z,1097.00
2023-03-01T08:59:40.616Z,1089.00
2023-03-01T09:00:40.694Z,1076.00
2023-03-01T09:01:40.739Z,1063.00
2023-03-01T09:02:40.772Z,1079.00
2023-03-01T09:03:40.812Z,1089.00
2023-03-01T09:04:40.856Z,1088.00
2023-03-01T09:18:41.922Z,655.00
2023-03-01T09:19:41.437Z,537.00
2023-03-01T09:20:42.473Z,494.00
2023-03-01T09:21:41.621Z,452.00
2023-03-01T09:22:41.499Z,417.00
2023-03-01T09:23:41.535Z,400.00
2023-03-01T09:24:41.555Z,400.00
2023-03-01T09:25:41.594Z,400.00
2023-03-01T09:26:41.736Z,400.00
2023-03-01T09:27:41.657Z,400.00
2023-03-01T09:28:42.430Z,400.00
2023-03-01T09:29:41.696Z,400.00
2023-03-01T09:30:41.742Z,400.00
2023-03-01T09:31:41.742Z,400.00
2023-03-01T09:32:41.764Z,400.00
2023-03-01T09:33:41.799Z,400.00
2023-03-01T09:34:41.809Z,400.00
2023-03-01T09:35:41.894Z,400.00
2023-03-01T09:36:41.959Z,400.00
2023-03-01T09:37:42.044Z,419.00
2023-03-01T09:38:42.147Z,456.00
2023-03-01T09:39:42.219Z,499.00
2023-03-01T09:40:42.316Z,500.00
2023-03-01T09:41:42.392Z,501.00
2023-03-01T09:42:42.485Z,500.00
2023-03-01T09:44:52.669Z,500.00
2023-03-01T09:45:52.700Z,500.00
2023-03-01T09:46:52.645Z,500.00
2023-03-01T09:47:52.617Z,500.00
2023-03-01T09:48:52.603Z,500.00
2023-03-01T09:49:52.603Z,516.00
2023-03-01T09:50:52.562Z,528.00
2023-03-01T09:51:52.891Z,582.00
2023-03-01T09:52:52.476Z,590.00
2023-03-01T09:53:52.437Z,627.00
2023-03-01T09:54:52.404Z,741.00
2023-03-01T09:55:52.390Z,802.00
2023-03-01T09:56:52.358Z,949.00
2023-03-01T09:57:52.298Z,1081.00
2023-03-01T09:58:52.252Z,1221.00
2023-03-01T09:59:52.377Z,1343.00
2023-03-01T10:00:52.174Z,1430.00
2023-03-01T10:01:52.305Z,1513.00
2023-03-01T10:02:52.072Z,1589.00
2023-03-01T10:03:52.053Z,1655.00
2023-03-01T10:04:52.342Z,1713.00
2023-03-01T10:05:51.951Z,1795.00
2023-03-01T10:06:51.907Z,1827.00
2023-03-01T10:07:51.866Z,1832.00
2023-03-01T10:08:51.908Z,1876.00
2023-03-01T10:09:51.880Z,1886.00
2023-03-01T10:10:51.742Z,1890.00
2023-03-01T10:11:51.707Z,1867.00
2023-03-01T10:12:51.651Z,1801.00
2023-03-01T10:13:51.617Z,1816.00
2023-03-01T10:14:51.565Z,1841.00
2023-03-01T10:15:51.559Z,1907.00
2023-03-01T10:16:51.505Z,1994.00
2023-03-01T10:17:52.374Z,2028.00
2023-03-01T10:18:51.443Z,2031.00
2023-03-01T10:19:51.421Z,2040.00
2023-03-01T10:20:51.890Z,2060.00
2023-03-01T10:22:51.521Z,2178.00
2023-03-01T10:23:51.320Z,2187.00
2023-03-01T10:24:51.267Z,1889.00
2023-03-01T10:25:51.241Z,1809.00
2023-03-01T10:26:51.210Z,1839.00
2023-03-01T10:27:51.162Z,1537.00
2023-03-01T10:28:51.109Z,1306.00
2023-03-01T10:29:51.054Z,1202.00
2023-03-01T10:30:51.146Z,1133.00
2023-03-01T10:31:51.021Z,1262.00
2023-03-01T10:32:50.946Z,1582.00
2023-03-01T10:33:50.904Z,1561.00
2023-03-01T10:34:50.831Z,1713.00
2023-03-01T10:35:50.991Z,1828.00
2023-03-01T10:36:50.754Z,1843.00
2023-03-01T10:37:50.702Z,1873.00
2023-03-01T10:38:50.665Z,1870.00
2023-03-01T10:39:50.613Z,1893.00
2023-03-01T10:40:52.447Z,1906.00
2023-03-01T10:41:50.528Z,1923.00
2023-03-01T10:42:50.503Z,1945.00
2023-03-01T10:43:50.568Z,2013.00
2023-03-01T10:44:50.394Z,2051.00
2023-03-01T10:45:50.380Z,1972.00
2023-03-01T10:46:50.331Z,1980.00
2023-03-01T10:47:50.282Z,1972.00
2023-03-01T10:49:50.204Z,2012.00
2023-03-01T10:50:50.154Z,2039.00
2023-03-01T10:51:50.139Z,1963.00
2023-03-01T10:52:50.065Z,1804.00
2023-03-01T10:53:50.017Z,1535.00
2023-03-01T10:54:50.003Z,1343.00
2023-03-01T10:55:50.262Z,1343.00
2023-03-01T10:56:49.905Z,1542.00
2023-03-01T10:57:49.875Z,1663.00
2023-03-01T10:58:49.909Z,1715.00
2023-03-01T10:59:49.793Z,1725.00
2023-03-01T11:00:49.755Z,1831.00
2023-03-01T11:01:49.762Z,1880.00
2023-03-01T11:02:49.697Z,2000.00
2023-03-01T11:03:49.618Z,2061.00
2023-03-01T11:04:49.703Z,2099.00
2023-03-01T11:05:49.551Z,2097.00
2023-03-01T11:06:51.480Z,2132.00
2023-03-01T11:07:49.466Z,2133.00
2023-03-01T11:08:49.528Z,2138.00
2023-03-01T11:09:49.375Z,2139.00
2023-03-01T11:10:49.346Z,2128.00
2023-03-01T11:11:49.300Z,2114.00
2023-03-01T11:12:49.285Z,2161.00
2023-03-01T11:13:49.293Z,2118.00
2023-03-01T11:14:49.225Z,2172.00
2023-03-01T11:15:49.246Z,2202.00
2023-03-01T11:16:49.263Z,2242.00
2023-03-01T11:17:55.790Z,2268.00
2023-03-01T11:18:50.054Z,2270.00
2023-03-01T11:20:02.009Z,2280.00
2023-03-01T11:20:50.820Z,2271.00
2023-03-01T11:21:48.913Z,2286.00
2023-03-01T11:22:48.860Z,2316.00
2023-03-01T11:23:48.835Z,2374.00
2023-03-01T11:24:57.278Z,2412.00
2023-03-01T11:25:49.734Z,2274.00
2023-03-01T11:26:48.692Z,2297.00
2023-03-01T11:27:48.650Z,2334.00
2023-03-01T11:28:48.612Z,2379.00
2023-03-01T11:29:49.428Z,2445.00
2023-03-01T11:31:01.888Z,2458.00
2023-03-01T11:31:57.542Z,2458.00
2023-03-01T11:32:49.554Z,2459.00
2023-03-01T11:33:48.375Z,2467.00
2023-03-01T11:34:48.325Z,2473.00
2023-03-01T11:35:48.325Z,2473.00
2023-03-01T11:36:48.243Z,2463.00
2023-03-01T11:37:48.191Z,2456.00
2023-03-01T11:38:48.141Z,2432.00
2023-03-01T11:39:49.829Z,2431.00
2023-03-01T11:40:48.050Z,2423.00
2023-03-01T11:41:48.012Z,2418.00
2023-03-01T11:42:48.034Z,2409.00
2023-03-01T11:43:47.937Z,2420.00
2023-03-01T11:44:47.885Z,2415.00
2023-03-01T11:45:47.875Z,2417.00
2023-03-01T11:46:47.932Z,2415.00
2023-03-01T11:47:47.819Z,2419.00
2023-03-01T11:48:50.139Z,2423.00
2023-03-01T11:49:47.833Z,2387.00
2023-03-01T11:50:47.839Z,2405.00
2023-03-01T11:51:47.782Z,2375.00
2023-03-01T11:52:47.752Z,2378.00
2023-03-01T11:53:47.734Z,2393.00
2023-03-01T14:31:52.644Z,2455.00
2023-03-01T14:33:40.905Z,2456.00
2023-03-01T14:34:40.859Z,2458.00
2023-03-01T14:35:40.860Z,2442.00
2023-03-01T14:36:40.775Z,2454.00
2023-03-01T14:37:40.751Z,2450.00
2023-03-01T14:38:40.700Z,2437.00
2023-03-01T14:39:40.655Z,2438.00
2023-03-01T14:40:40.620Z,2427.00
2023-03-01T14:41:40.571Z,2414.00
2023-03-01T14:42:40.525Z,2416.00
2023-03-01T14:43:40.500Z,2396.00
2023-03-01T14:44:40.446Z,2405.00
2023-03-01T14:45:40.408Z,2412.00
2023-03-01T14:46:40.431Z,2382.00
2023-03-01T14:47:40.885Z,2379.00
2023-03-01T14:48:40.265Z,2382.00
2023-03-01T14:49:40.231Z,2380.00
2023-03-01T14:50:40.183Z,2373.00
2023-03-01T14:51:40.133Z,2355.00
2023-03-01T14:52:40.089Z,2363.00
2023-03-01T14:53:50.375Z,2367.00
2023-03-01T14:54:40.997Z,2368.00
2023-03-01T14:55:39.961Z,2371.00
2023-03-01T14:56:39.915Z,2383.00
2023-03-01T14:57:39.970Z,2380.00
2023-03-01T14:58:39.790Z,2394.00
2023-03-01T14:59:39.734Z,2419.00
2023-03-01T15:00:39.687Z,2387.00
2023-03-01T15:01:39.648Z,2409.00
2023-03-01T15:02:39.588Z,2390.00
2023-03-01T15:03:39.537Z,2416.00
2023-03-01T15:04:39.552Z,2417.00
2023-03-01T15:05:39.437Z,2420.00
2023-03-01T15:06:39.400Z,2416.00
2023-03-01T15:07:39.353Z,2445.00
2023-03-01T15:08:39.308Z,2422.00
2023-03-01T15:09:39.260Z,2431.00
2023-03-01T15:10:39.213Z,2436.00
2023-03-01T15:11:39.164Z,2434.00
2023-03-01T15:12:39.104Z,2414.00
2023-03-01T15:13:39.152Z,2420.00
2023-03-01T15:14:39.017Z,2431.00
2023-03-01T15:15:39.056Z,2419.00
2023-03-01T15:16:38.933Z,2418.00
2023-03-01T15:17:38.891Z,2426.00
2023-03-01T15:18:38.855Z,2426.00
2023-03-01T15:19:38.807Z,2428.00
2023-03-01T15:20:38.753Z,2417.00
2023-03-01T15:21:38.758Z,2411.00
2023-03-01T15:22:38.663Z,2436.00
2023-03-01T15:23:38.619Z,2388.00
2023-03-01T15:24:38.567Z,2399.00
2023-03-01T15:25:38.526Z,2407.00
2023-03-01T15:26:38.480Z,2382.00
2023-03-01T15:27:38.441Z,2393.00
2023-03-01T15:28:38.401Z,2390.00
2023-03-01T15:30:15.583Z,500.00
2023-03-01T15:31:15.605Z,500.00
2023-03-01T15:32:15.659Z,500.00
2023-03-01T15:33:15.537Z,500.00
2023-03-01T15:34:15.514Z,500.00
2023-03-01T15:35:15.512Z,400.00
2023-03-01T15:36:15.502Z,400.00
2023-03-01T15:37:15.493Z,400.00
2023-03-01T15:38:21.513Z,400.00
2023-03-01T15:39:16.483Z,400.00
2023-03-01T15:40:15.471Z,400.00
2023-03-01T15:41:15.461Z,400.00
2023-03-01T15:42:15.453Z,400.00
2023-03-01T15:43:15.449Z,400.00
2023-03-01T15:44:15.456Z,400.00
2023-03-01T15:45:15.450Z,400.00
2023-03-01T15:46:15.455Z,400.00
2023-03-01T15:47:15.488Z,400.00
2023-03-01T15:48:15.533Z,400.00
2023-03-01T15:49:15.568Z,400.00
2023-03-01T15:50:15.609Z,400.00
2023-03-01T15:51:15.662Z,400.00
2023-03-01T15:52:15.706Z,455.00
2023-03-01T15:53:15.762Z,513.00
2023-03-01T15:54:15.813Z,554.00
2023-03-01T15:55:15.902Z,584.00
2023-03-01T15:56:15.922Z,613.00
2023-03-01T15:57:15.986Z,641.00
2023-03-01T15:58:16.042Z,656.00
2023-03-01T15:59:16.088Z,776.00
2023-03-01T16:00:16.160Z,970.00
2023-03-01T16:01:16.197Z,1163.00
2023-03-01T16:02:16.246Z,1281.00
2023-03-01T16:03:16.301Z,1417.00
2023-03-01T16:04:16.409Z,1496.00
2023-03-01T16:05:16.399Z,1586.00
2023-03-01T16:06:16.446Z,1609.00
2023-03-01T16:07:16.488Z,1652.00
2023-03-01T16:08:16.525Z,1674.00
2023-03-01T16:09:16.597Z,1662.00
2023-03-01T16:10:16.632Z,1714.00
2023-03-01T16:11:16.672Z,1721.00
2023-03-01T16:12:16.715Z,1772.00
2023-03-01T16:13:16.753Z,1776.00
2023-03-01T16:14:16.796Z,1764.00
2023-03-01T16:15:16.850Z,1808.00
2023-03-01T16:16:17.035Z,1815.00
2023-03-01T16:17:16.959Z,1821.00
2023-03-01T16:18:16.974Z,1831.00
2023-03-01T16:19:17.025Z,1839.00
2023-03-01T16:20:27.194Z,1858.00
2023-03-01T16:21:18.037Z,1858.00
2023-03-01T16:22:17.039Z,1862.00
2023-03-01T16:23:17.020Z,1869.00
2023-03-01T16:24:16.996Z,1891.00
2023-03-01T16:25:16.978Z,1914.00
2023-03-01T16:26:18.144Z,1923.00
2023-03-01T16:27:16.941Z,1942.00
2023-03-01T16:28:16.931Z,1941.00
2023-03-01T16:29:16.921Z,1957.00
2023-03-01T16:30:16.898Z,1961.00
2023-03-01T16:31:16.889Z,1986.00
2023-03-01T16:32:16.919Z,1994.00
2023-03-01T16:33:26.912Z,1981.00
2023-03-01T16:34:17.844Z,1983.00
2023-03-01T16:35:16.823Z,1986.00
2023-03-01T16:36:16.804Z,1989.00
2023-03-01T16:37:16.791Z,2002.00
2023-03-01T16:38:16.779Z,2043.00
2023-03-01T16:39:16.759Z,2075.00
2023-03-01T16:40:16.751Z,2058.00
2023-03-01T16:41:16.763Z,2056.00
2023-03-01T16:42:16.764Z,2062.00
2023-03-01T16:43:16.839Z,2087.00
2023-03-01T16:44:16.871Z,2086.00